createdAt,value
2022-08-08T00:00:53.802Z,9.762787
2022-08-08T00:00:54.152Z,9.762715
2022-08-08T00:02:03.158Z,9.762715
2022-08-08T00:02:46.483Z,9.763540
2022-08-08T00:03:45.271Z,9.762923
2022-08-08T00:04:49.458Z,9.762816
2022-08-08T00:06:02.746Z,9.762860
2022-08-08T00:06:46.272Z,9.762181
2022-08-08T00:07:45.179Z,9.762181
2022-08-08T00:08:49.140Z,9.763008
2022-08-08T00:09:45.150Z,9.762960
2022-08-08T00:10:46.181Z,9.762943
2022-08-08T00:11:46.601Z,9.762772
2022-08-08T00:12:48.511Z,9.762692
2022-08-08T00:14:15.333Z,9.763168
2022-08-08T00:14:48.467Z,9.762917
2022-08-08T00:15:56.511Z,9.762949
2022-08-08T00:16:46.183Z,9.761643
2022-08-08T00:18:02.408Z,9.761643
2022-08-08T00:18:46.080Z,9.754822
2022-08-08T00:19:51.236Z,9.754822
2022-08-08T00:20:46.098Z,9.754822
2022-08-08T00:21:45.105Z,9.754822
2022-08-08T00:22:45.078Z,9.754822
2022-08-08T00:23:51.067Z,9.703565
2022-08-08T00:24:46.061Z,9.703565
2022-08-08T00:25:50.625Z,9.703565
2022-08-08T00:26:46.089Z,9.703565
2022-08-08T00:27:45.038Z,9.703565
2022-08-08T00:28:44.991Z,9.703565
2022-08-08T00:29:46.968Z,9.703565
2022-08-08T00:31:00.219Z,9.703565
2022-08-08T00:32:28.742Z,9.703565
2022-08-08T00:32:46.199Z,9.703565
2022-08-08T00:34:17.319Z,9.703565
2022-08-08T00:34:46.002Z,9.703565
2022-08-08T00:35:48.185Z,9.703565
2022-08-08T00:36:44.988Z,9.703565
2022-08-08T00:37:57.025Z,9.703565
2022-08-08T00:38:51.758Z,9.703565
2022-08-08T00:41:10.273Z,9.703565
2022-08-08T00:41:10.463Z,9.703565
2022-08-08T00:42:08.073Z,9.703565
2022-08-08T00:42:46.051Z,9.703565
2022-08-08T00:43:46.007Z,9.703565
2022-08-08T00:44:45.877Z,9.703565
2022-08-08T00:45:44.880Z,9.703565
2022-08-08T00:46:56.933Z,9.703565
2022-08-08T00:48:02.070Z,9.703565
2022-08-08T00:49:00.886Z,9.703565
2022-08-08T00:49:57.728Z,9.703565
2022-08-08T00:50:48.186Z,9.703565
2022-08-08T00:51:45.861Z,9.703565
2022-08-08T00:52:48.398Z,9.703565
2022-08-08T00:54:04.132Z,9.703565
2022-08-08T00:54:45.981Z,9.703565
2022-08-08T00:55:53.755Z,9.703565
2022-08-08T00:56:45.745Z,9.703565
2022-08-08T00:57:44.767Z,9.703565
2022-08-08T00:58:54.737Z,9.703565
2022-08-08T00:59:46.419Z,9.703565
2022-08-08T01:00:44.752Z,9.703565
2022-08-08T01:01:45.779Z,9.703565
2022-08-08T01:03:59.516Z,9.703565
2022-08-08T01:04:01.688Z,9.762753
2022-08-08T01:04:47.375Z,9.762782
2022-08-08T01:05:59.339Z,9.762704
2022-08-08T01:06:47.512Z,9.762620
2022-08-08T01:07:55.403Z,9.762680
2022-08-08T01:08:50.145Z,9.762422
2022-08-08T01:09:48.732Z,9.762434
2022-08-08T01:10:44.570Z,9.762518
2022-08-08T01:11:51.821Z,9.762682
2022-08-08T01:12:45.598Z,9.762691
2022-08-08T01:13:45.959Z,9.762726
2022-08-08T01:14:53.379Z,9.762686
2022-08-08T01:15:53.261Z,9.762686
2022-08-08T01:16:46.702Z,9.762686
2022-08-08T01:17:55.566Z,9.762686
2022-08-08T01:18:53.259Z,9.762686
2022-08-08T01:20:02.670Z,9.762686
2022-08-08T01:20:45.486Z,9.762686
2022-08-08T01:22:10.308Z,9.762686
2022-08-08T01:22:45.524Z,9.762747
2022-08-08T01:24:02.697Z,9.762735
2022-08-08T01:24:50.641Z,9.762713
2022-08-08T01:25:45.469Z,9.762681
2022-08-08T01:26:49.376Z,9.762794
2022-08-08T01:27:46.326Z,9.763060
2022-08-08T01:28:44.406Z,9.762982
2022-08-08T01:29:59.709Z,9.762850
2022-08-08T01:30:45.752Z,9.762746
2022-08-08T01:32:13.641Z,9.762667
2022-08-08T01:32:45.344Z,9.762802
2022-08-08T01:34:00.210Z,9.762594
2022-08-08T01:34:45.360Z,9.762650
2022-08-08T01:35:44.331Z,9.762769
2022-08-08T01:36:48.657Z,9.762761
2022-08-08T01:37:57.398Z,9.762808
2022-08-08T01:38:45.301Z,9.762673
2022-08-08T01:39:44.338Z,9.762662
2022-08-08T01:40:44.288Z,9.762718
2022-08-08T01:41:44.328Z,9.762719
2022-08-08T01:42:44.262Z,9.762715
2022-08-08T01:43:44.310Z,9.762651
2022-08-08T01:44:44.291Z,9.762637
2022-08-08T01:45:45.281Z,9.762695
2022-08-08T01:46:47.515Z,9.762732
2022-08-08T01:48:13.847Z,9.762806
2022-08-08T01:48:46.448Z,9.762750
2022-08-08T01:49:44.203Z,9.762689
2022-08-08T01:50:44.313Z,9.762666
2022-08-08T01:52:29.367Z,9.762764
2022-08-08T01:54:01.030Z,9.762646
2022-08-08T01:55:17.772Z,9.762820
2022-08-08T01:55:18.788Z,9.762679
2022-08-08T01:56:28.325Z,9.762779
2022-08-08T01:56:46.930Z,9.762798
2022-08-08T01:58:11.929Z,9.762696
2022-08-08T01:58:46.436Z,9.762818
2022-08-08T02:00:02.361Z,9.762659
2022-08-08T02:00:48.539Z,9.762685
2022-08-08T02:02:00.207Z,9.762793
2022-08-08T02:02:45.378Z,9.762679
2022-08-08T02:03:56.827Z,9.762843
2022-08-08T02:04:45.054Z,9.762773
2022-08-08T02:05:56.910Z,9.762699
2022-08-08T02:06:45.070Z,9.762790
2022-08-08T02:07:48.786Z,9.762741
2022-08-08T02:08:45.686Z,9.762629
2022-08-08T02:10:02.720Z,9.762840
2022-08-08T02:10:45.914Z,9.762978
2022-08-08T02:11:59.523Z,9.763091
2022-08-08T02:12:45.046Z,9.762876
2022-08-08T02:13:53.708Z,9.763029
2022-08-08T02:14:55.892Z,9.762710
2022-08-08T02:15:44.978Z,9.762604
2022-08-08T02:16:43.941Z,9.762351
2022-08-08T02:17:43.949Z,9.762816
2022-08-08T02:18:43.937Z,9.762792
2022-08-08T02:20:07.801Z,9.762663
2022-08-08T02:21:01.822Z,9.762027
2022-08-08T02:21:44.864Z,9.760584
2022-08-08T02:22:52.318Z,9.762177
2022-08-08T02:23:44.870Z,9.763021
2022-08-08T02:24:44.224Z,9.762752
2022-08-08T02:25:48.479Z,9.762591
2022-08-08T02:26:44.807Z,9.762938
2022-08-08T02:27:43.989Z,9.763034
2022-08-08T02:28:48.614Z,9.762970
2022-08-08T02:29:51.594Z,9.762827
2022-08-08T02:30:49.744Z,9.762706
2022-08-08T02:31:59.588Z,9.762671
2022-08-08T02:32:44.790Z,9.762750
2022-08-08T02:34:00.585Z,9.762949
2022-08-08T02:35:08.596Z,9.762944
2022-08-08T02:36:04.280Z,9.762736
2022-08-08T02:36:44.753Z,9.762696
2022-08-08T02:37:51.966Z,9.762454
2022-08-08T02:38:48.957Z,9.762252
2022-08-08T02:40:00.289Z,9.762352
2022-08-08T02:40:45.146Z,9.762637
2022-08-08T02:41:58.942Z,9.762793
2022-08-08T02:42:44.706Z,9.762654
2022-08-08T02:44:37.769Z,9.763424
2022-08-08T02:44:54.320Z,9.762528
2022-08-08T02:45:54.035Z,9.762361
2022-08-08T02:46:44.657Z,9.762565
2022-08-08T02:47:46.765Z,9.763054
2022-08-08T02:48:45.295Z,9.762578
2022-08-08T02:49:47.828Z,9.760128
2022-08-08T02:50:52.878Z,9.762637
2022-08-08T02:51:55.202Z,9.762695
2022-08-08T02:52:50.306Z,9.762336
2022-08-08T02:53:44.568Z,9.762285
2022-08-08T02:54:43.575Z,9.762634
2022-08-08T02:55:43.564Z,9.762611
2022-08-08T02:56:43.536Z,9.762446
2022-08-08T02:57:44.440Z,9.762316
2022-08-08T02:58:43.533Z,9.762241
2022-08-08T02:59:57.660Z,9.762267
2022-08-08T03:00:50.779Z,9.762275
2022-08-08T03:01:50.109Z,9.763017
2022-08-08T03:02:50.390Z,9.762457
2022-08-08T03:05:00.988Z,9.761982
2022-08-08T03:05:03.185Z,9.762014
2022-08-08T03:05:45.449Z,9.761294
2022-08-08T03:06:43.487Z,9.761832
2022-08-08T03:07:57.967Z,9.761935
2022-08-08T03:08:44.460Z,9.761127
2022-08-08T03:09:44.433Z,9.761156
2022-08-08T03:10:44.645Z,9.761658
2022-08-08T03:12:01.005Z,9.762473
2022-08-08T03:13:02.591Z,9.762630
2022-08-08T03:15:58.630Z,9.762738
2022-08-08T03:16:03.865Z,9.762911
2022-08-08T03:16:04.029Z,9.763192
2022-08-08T03:16:44.371Z,9.762680
2022-08-08T03:17:43.406Z,9.762713
2022-08-08T03:18:44.359Z,9.762681
2022-08-08T03:19:50.669Z,9.762632
2022-08-08T03:20:46.808Z,9.762728
2022-08-08T03:21:58.199Z,9.762778
2022-08-08T03:22:44.320Z,9.762697
2022-08-08T03:23:59.508Z,9.762800
2022-08-08T03:24:44.295Z,9.762731
2022-08-08T03:25:43.257Z,9.762781
2022-08-08T03:26:43.283Z,9.762795
2022-08-08T03:27:43.323Z,9.762645
2022-08-08T03:28:43.236Z,9.762568
2022-08-08T03:29:56.166Z,9.762517
2022-08-08T03:30:44.224Z,9.762633
2022-08-08T03:32:05.287Z,9.762823
2022-08-08T03:32:47.276Z,9.762740
2022-08-08T03:33:55.739Z,9.762897
2022-08-08T03:34:44.194Z,9.762810
2022-08-08T03:35:43.159Z,9.762730
2022-08-08T03:36:44.172Z,9.762526
2022-08-08T03:38:53.207Z,9.762629
2022-08-08T03:38:54.776Z,9.762733
2022-08-08T03:39:51.994Z,9.762739
2022-08-08T03:40:46.722Z,9.762627
2022-08-08T03:42:27.229Z,9.762758
2022-08-08T03:42:45.648Z,9.762714
2022-08-08T03:43:43.119Z,9.762737
2022-08-08T03:44:47.815Z,9.762629
2022-08-08T03:46:04.964Z,9.762693
2022-08-08T03:46:44.064Z,9.762677
2022-08-08T03:47:45.971Z,9.762973
2022-08-08T03:49:56.375Z,9.762337
2022-08-08T03:49:59.776Z,9.762486
2022-08-08T03:50:44.024Z,9.762660
2022-08-08T03:51:51.446Z,9.762678
2022-08-08T03:52:45.155Z,9.762581
2022-08-08T03:53:47.588Z,9.762765
2022-08-08T03:55:01.701Z,9.762606
2022-08-08T03:55:56.629Z,9.762631
2022-08-08T03:56:46.571Z,9.762733
2022-08-08T03:58:31.630Z,9.762771
2022-08-08T03:58:47.872Z,9.762732
2022-08-08T04:00:02.533Z,9.762322
2022-08-08T04:01:02.872Z,9.763004
2022-08-08T04:02:12.631Z,9.762615
2022-08-08T04:02:51.851Z,9.762717
2022-08-08T04:03:58.018Z,9.762848
2022-08-08T04:04:43.993Z,9.762743
2022-08-08T04:05:48.120Z,9.762760
2022-08-08T04:06:43.851Z,9.762568
2022-08-08T04:07:42.865Z,9.762526
2022-08-08T04:08:46.042Z,9.762661
2022-08-08T04:10:02.991Z,9.762654
2022-08-08T04:10:43.824Z,9.762611
2022-08-08T04:11:57.972Z,9.762311
2022-08-08T04:12:43.847Z,9.762515
2022-08-08T04:14:03.631Z,9.762599
2022-08-08T04:14:44.947Z,9.762354
2022-08-08T04:15:55.210Z,9.762431
2022-08-08T04:16:43.813Z,9.762770
2022-08-08T04:17:58.013Z,9.762580
2022-08-08T04:18:48.635Z,9.762713
2022-08-08T04:19:43.730Z,9.762679
2022-08-08T04:20:42.743Z,9.762753
2022-08-08T04:21:45.714Z,9.762630
2022-08-08T04:22:42.745Z,9.762705
2022-08-08T04:24:19.322Z,9.762457
2022-08-08T04:24:43.686Z,9.762641
2022-08-08T04:25:43.665Z,9.762753
2022-08-08T04:26:57.338Z,9.762754
2022-08-08T04:28:03.008Z,9.762767
2022-08-08T04:28:43.669Z,9.762635
2022-08-08T04:29:55.051Z,9.762784
2022-08-08T04:30:44.605Z,9.762589
2022-08-08T04:31:59.658Z,9.762677
2022-08-08T04:32:47.820Z,9.762689
2022-08-08T04:33:43.613Z,9.762511
2022-08-08T04:34:49.308Z,9.762799
2022-08-08T04:35:50.869Z,9.762926
2022-08-08T04:36:43.621Z,9.762858
2022-08-08T04:37:43.555Z,9.762819
2022-08-08T04:38:43.823Z,9.762497
2022-08-08T04:40:05.763Z,9.762712
2022-08-08T04:40:54.312Z,9.762691
2022-08-08T04:41:43.555Z,9.762483
2022-08-08T04:42:46.609Z,9.762643
2022-08-08T04:43:46.903Z,9.762731
2022-08-08T04:44:43.500Z,9.762746
2022-08-08T04:45:42.495Z,9.762755
2022-08-08T04:46:42.455Z,9.762634
2022-08-08T04:47:46.448Z,9.762797
2022-08-08T04:48:42.594Z,9.762444
2022-08-08T04:50:01.621Z,9.762774
2022-08-08T04:50:45.889Z,9.762692
2022-08-08T04:51:55.031Z,9.762776
2022-08-08T04:52:43.408Z,9.762757
2022-08-08T04:54:36.130Z,9.762730
2022-08-08T04:54:43.434Z,9.762787
2022-08-08T04:55:55.604Z,9.762720
2022-08-08T04:56:43.369Z,9.762732
2022-08-08T04:57:42.365Z,9.762783
2022-08-08T04:58:42.429Z,9.762824
2022-08-08T04:59:42.739Z,9.762728
2022-08-08T05:00:42.372Z,9.762686
2022-08-08T05:01:48.392Z,9.762667
2022-08-08T05:02:43.377Z,9.764326
2022-08-08T05:04:08.363Z,9.766161
2022-08-08T05:04:44.619Z,9.762652
2022-08-08T05:05:45.411Z,9.762773
2022-08-08T05:06:42.362Z,9.762729
2022-08-08T05:07:42.791Z,9.762870
2022-08-08T05:08:42.258Z,9.762792
2022-08-08T05:09:42.254Z,9.762863
2022-08-08T05:10:42.241Z,9.762899
2022-08-08T05:11:42.253Z,9.762799
2022-08-08T05:12:59.987Z,9.762811
2022-08-08T05:13:58.191Z,9.762763
2022-08-08T05:14:43.211Z,9.762815
2022-08-08T05:16:52.129Z,9.762751
2022-08-08T05:16:54.787Z,9.762748
2022-08-08T05:17:54.138Z,9.762733
2022-08-08T05:18:43.206Z,9.762604
2022-08-08T05:20:11.421Z,9.762503
2022-08-08T05:20:50.337Z,9.762720
2022-08-08T05:21:43.705Z,9.762687
2022-08-08T05:22:43.142Z,9.762819
2022-08-08T05:23:46.083Z,9.762700
2022-08-08T05:24:42.135Z,9.762959
2022-08-08T05:25:43.238Z,9.762965
2022-08-08T05:26:42.075Z,9.763117
2022-08-08T05:27:44.426Z,9.762953
2022-08-08T05:28:56.409Z,9.762817
2022-08-08T05:29:43.090Z,9.762717
2022-08-08T05:30:47.405Z,9.762809
2022-08-08T05:32:03.577Z,9.763316
2022-08-08T05:32:43.560Z,9.764320
2022-08-08T05:33:44.242Z,9.767899
2022-08-08T05:34:43.491Z,9.767899
2022-08-08T05:35:42.016Z,9.767899
2022-08-08T05:36:42.130Z,9.767899
2022-08-08T05:37:52.929Z,9.767899
2022-08-08T05:38:43.023Z,9.767899
2022-08-08T05:39:42.016Z,9.767899
2022-08-08T05:40:41.934Z,9.767899
2022-08-08T05:41:46.294Z,9.762788
2022-08-08T05:42:42.896Z,9.762869
2022-08-08T05:44:03.734Z,9.762905
2022-08-08T05:44:42.900Z,9.762768
2022-08-08T05:45:53.063Z,9.762740
2022-08-08T05:46:42.886Z,9.762877
2022-08-08T05:47:59.804Z,9.762881
2022-08-08T05:48:42.856Z,9.762853
2022-08-08T05:49:41.894Z,9.762813
2022-08-08T05:50:42.854Z,9.762866
2022-08-08T05:51:48.472Z,9.763185
2022-08-08T05:52:42.809Z,9.764308
2022-08-08T05:54:24.886Z,9.764308
2022-08-08T05:54:50.229Z,9.768146
2022-08-08T05:56:07.875Z,9.768535
2022-08-08T05:56:47.448Z,9.762008
2022-08-08T05:58:04.538Z,9.760493
2022-08-08T05:58:53.532Z,9.762490
2022-08-08T05:59:53.674Z,9.762784
2022-08-08T06:00:44.449Z,9.762859
2022-08-08T06:01:55.565Z,9.762709
2022-08-08T06:02:43.508Z,9.763169
2022-08-08T06:03:42.102Z,9.762946
2022-08-08T06:04:41.725Z,9.762944
2022-08-08T06:05:42.688Z,9.762854
2022-08-08T06:06:41.675Z,9.762757
2022-08-08T06:07:43.790Z,9.762810
2022-08-08T06:08:53.378Z,9.762803
2022-08-08T06:10:00.360Z,9.762818
2022-08-08T06:10:42.713Z,9.762778
2022-08-08T06:11:46.006Z,9.762849
2022-08-08T06:12:43.453Z,9.762791
2022-08-08T06:13:47.256Z,9.762654
2022-08-08T06:14:47.890Z,9.762911
2022-08-08T06:15:53.329Z,9.762912
2022-08-08T06:16:42.653Z,9.762831
2022-08-08T06:17:50.866Z,9.762801
2022-08-08T06:18:42.958Z,9.762535
2022-08-08T06:19:41.646Z,9.762579
2022-08-08T06:20:41.610Z,9.763962
2022-08-08T06:21:48.821Z,9.763195
2022-08-08T06:22:42.579Z,9.763054
2022-08-08T06:23:53.126Z,9.762672
2022-08-08T06:24:47.091Z,9.762672
2022-08-08T06:26:39.010Z,9.762672
2022-08-08T06:26:45.287Z,9.762905
2022-08-08T06:27:47.582Z,9.763239
2022-08-08T06:28:42.468Z,9.763066
2022-08-08T06:29:56.830Z,9.762833
2022-08-08T06:30:42.472Z,9.762826
2022-08-08T06:32:09.103Z,9.762737
2022-08-08T06:32:42.414Z,9.762769
2022-08-08T06:34:25.505Z,9.762883
2022-08-08T06:34:42.432Z,9.762818
2022-08-08T06:36:09.241Z,9.762824
2022-08-08T06:36:53.621Z,9.762822
2022-08-08T06:37:43.669Z,9.762744
2022-08-08T06:38:42.786Z,9.762712
2022-08-08T06:39:56.111Z,9.762673
2022-08-08T06:40:48.829Z,9.762685
2022-08-08T06:41:42.328Z,9.762674
2022-08-08T06:42:42.343Z,9.762822
2022-08-08T06:43:41.315Z,9.763120
2022-08-08T06:44:42.686Z,9.762834
2022-08-08T06:45:42.293Z,9.762989
2022-08-08T06:46:41.291Z,9.763009
2022-08-08T06:47:52.705Z,9.762765
2022-08-08T06:48:42.431Z,9.762651
2022-08-08T06:49:56.858Z,9.762724
2022-08-08T06:50:42.304Z,9.762662
2022-08-08T06:51:49.055Z,9.762667
2022-08-08T06:52:42.953Z,9.762745
2022-08-08T06:53:50.835Z,9.762731
2022-08-08T06:54:42.195Z,9.762836
2022-08-08T06:55:41.684Z,9.762791
2022-08-08T06:56:41.184Z,9.762728
2022-08-08T06:57:54.801Z,9.762792
2022-08-08T06:58:42.213Z,9.762716
2022-08-08T07:00:02.548Z,9.762704
2022-08-08T07:00:42.133Z,9.762694
2022-08-08T07:02:17.232Z,9.762765
2022-08-08T07:02:45.376Z,9.762758
2022-08-08T07:04:35.034Z,9.762774
2022-08-08T07:04:47.907Z,9.762783
2022-08-08T07:05:43.113Z,9.762776
2022-08-08T07:06:42.114Z,9.762937
2022-08-08T07:07:41.136Z,9.762814
2022-08-08T07:08:41.154Z,9.762634
2022-08-08T07:09:45.312Z,9.762625
2022-08-08T07:10:45.972Z,9.762512
2022-08-08T07:11:50.623Z,9.762797
2022-08-08T07:12:43.003Z,9.762836
2022-08-08T07:14:00.563Z,9.762973
2022-08-08T07:14:42.029Z,9.762918
2022-08-08T07:16:05.599Z,9.762708
2022-08-08T07:16:51.169Z,9.762729
2022-08-08T07:18:01.451Z,9.762712
2022-08-08T07:18:42.068Z,9.762593
2022-08-08T07:19:40.968Z,9.762568
2022-08-08T07:20:50.459Z,9.762593
2022-08-08T07:21:41.950Z,9.763026
2022-08-08T07:22:40.951Z,9.762955
2022-08-08T07:24:01.818Z,9.762875
2022-08-08T07:24:42.022Z,9.762895
2022-08-08T07:25:54.087Z,9.762827
2022-08-08T07:26:41.950Z,9.762686
2022-08-08T07:27:46.974Z,9.762830
2022-08-08T07:28:41.963Z,9.762643
2022-08-08T07:30:02.533Z,9.762646
2022-08-08T07:31:54.433Z,9.762840
2022-08-08T07:32:29.903Z,9.762840
2022-08-08T12:13:38.319Z,9.767331
2022-08-08T12:14:22.682Z,9.762972
2022-08-08T12:15:41.766Z,9.762795
2022-08-08T12:16:31.712Z,9.762558
2022-08-08T12:17:23.355Z,9.762842
2022-08-08T12:18:24.295Z,9.762781
2022-08-08T12:19:22.118Z,9.762853
2022-08-08T12:20:23.276Z,9.762672
2022-08-08T12:21:21.763Z,9.763083
2022-08-08T12:22:23.310Z,9.762647
2022-08-08T12:23:30.502Z,9.762609
2022-08-08T12:24:28.033Z,9.762609
2022-08-08T12:25:24.714Z,9.762609
2022-08-08T12:26:28.567Z,9.761377
2022-08-08T12:27:26.485Z,9.761839
2022-08-08T12:28:21.915Z,9.762696
2022-08-08T12:29:55.530Z,9.762592
2022-08-08T12:30:51.059Z,9.762257
2022-08-08T12:31:22.572Z,9.762257
2022-08-08T12:32:24.891Z,9.762673
2022-08-08T12:33:21.512Z,9.762843
2022-08-08T12:35:54.458Z,9.762280
2022-08-08T12:35:56.048Z,9.762280
2022-08-08T12:36:56.910Z,9.762153
2022-08-08T12:38:02.187Z,9.762329
2022-08-08T13:15:40.535Z,9.764256
2022-08-08T13:16:39.541Z,9.764256
2022-08-08T13:18:09.181Z,9.764256
2022-08-08T13:18:55.754Z,9.762800
2022-08-08T13:19:49.634Z,9.762898
2022-08-08T13:20:40.541Z,9.763057
2022-08-08T13:21:53.711Z,9.763355
2022-08-08T13:22:40.565Z,9.763405
2022-08-08T13:23:46.558Z,9.763203
2022-08-08T13:24:48.102Z,9.762932
2022-08-08T13:25:40.457Z,9.762836
2022-08-08T13:26:39.413Z,9.762800
2022-08-08T13:27:40.418Z,9.762770
2022-08-08T13:28:42.098Z,9.762768
2022-08-08T13:29:40.942Z,9.762793
2022-08-08T13:30:39.381Z,9.762749
2022-08-08T13:31:39.386Z,9.762729
2022-08-08T13:32:39.704Z,9.762718
2022-08-08T13:33:42.689Z,9.762735
2022-08-08T13:35:02.147Z,9.762758
2022-08-08T13:38:06.331Z,9.762724
2022-08-08T13:38:52.885Z,9.762724
2022-08-08T17:05:45.092Z,9.763087
2022-08-08T17:06:43.385Z,9.763017
2022-08-08T17:07:37.549Z,9.763017
2022-08-08T17:08:34.421Z,9.763073
2022-08-08T17:09:44.885Z,9.762988
2022-08-08T17:10:35.394Z,9.762791
2022-08-08T17:11:39.294Z,9.762784
2022-08-08T17:12:36.687Z,9.762784
2022-08-08T17:13:49.822Z,9.762784
2022-08-08T17:14:35.353Z,9.762784
2022-08-08T17:15:34.594Z,9.762784
2022-08-08T17:16:35.342Z,9.762795
2022-08-08T17:18:01.279Z,9.762797
2022-08-08T17:18:35.340Z,9.762928
2022-08-08T17:19:41.052Z,9.762735
2022-08-08T17:20:39.494Z,9.762762
2022-08-08T17:21:34.326Z,9.762759
2022-08-08T17:22:42.159Z,9.762737
2022-08-08T17:24:00.375Z,9.762921
2022-08-08T17:24:35.294Z,9.762804
2022-08-08T17:25:51.973Z,9.762699
2022-08-08T17:26:35.296Z,9.762875
2022-08-08T17:27:46.285Z,9.762753
2022-08-08T17:28:35.723Z,9.762774
2022-08-08T17:29:36.498Z,9.762794
2022-08-08T17:30:35.205Z,9.762770
2022-08-08T17:31:44.373Z,9.762753
2022-08-08T17:34:30.261Z,9.762745
2022-08-08T17:34:37.434Z,9.762830
2022-08-08T17:35:04.213Z,9.762835
2022-08-08T17:35:54.418Z,9.762742
2022-08-08T17:36:35.164Z,9.762829
2022-08-08T17:37:34.183Z,9.762861
2022-08-08T17:38:34.140Z,9.762830
2022-08-08T17:40:03.211Z,9.762920
2022-08-08T17:40:35.164Z,9.762868
2022-08-08T17:41:38.889Z,9.762896
2022-08-08T17:42:35.102Z,9.762877
2022-08-08T17:44:01.189Z,9.763013
2022-08-08T17:44:37.451Z,9.762922
2022-08-08T17:45:36.509Z,9.762836
2022-08-08T17:46:34.070Z,9.762867
2022-08-08T17:47:40.141Z,9.762980
2022-08-08T17:48:35.034Z,9.762886
2022-08-08T17:49:42.715Z,9.762888
2022-08-08T17:50:35.016Z,9.763418
2022-08-08T17:51:34.054Z,9.763507
2022-08-08T17:52:35.403Z,9.762744
2022-08-08T17:53:43.122Z,9.762893
2022-08-08T17:54:35.329Z,9.762995
2022-08-08T17:56:06.677Z,9.762839
2022-08-08T17:56:34.989Z,9.762861
2022-08-08T17:57:35.438Z,9.762885
2022-08-08T17:58:34.047Z,9.762851
2022-08-08T17:59:36.406Z,9.762805
2022-08-08T18:00:38.999Z,9.762902
2022-08-08T18:01:50.971Z,9.762947
2022-08-08T18:02:35.997Z,9.762897
2022-08-08T18:03:33.976Z,9.763004
2022-08-08T18:04:33.884Z,9.762903
2022-08-08T18:05:44.154Z,9.762861
2022-08-08T18:06:34.895Z,9.762624
2022-08-08T18:08:02.187Z,9.762629
2022-08-08T18:08:38.187Z,9.762633
2022-08-08T18:09:37.980Z,9.762791
2022-08-08T18:10:33.829Z,9.762726
2022-08-08T18:11:36.579Z,9.762658
2022-08-08T18:12:33.848Z,9.762611
2022-08-08T18:13:35.040Z,9.762695
2022-08-08T18:14:34.806Z,9.762839
2022-08-08T18:15:33.794Z,9.762614
2022-08-08T18:16:34.818Z,9.762709
2022-08-08T18:18:09.382Z,9.762898
2022-08-08T18:18:38.704Z,9.762812
2022-08-08T18:19:45.829Z,9.762701
2022-08-08T18:20:43.560Z,9.762592
2022-08-08T18:22:01.649Z,9.762613
2022-08-08T18:22:51.048Z,9.762445
2022-08-08T18:23:34.724Z,9.762697
2022-08-08T18:24:33.719Z,9.762772
2022-08-08T18:25:37.521Z,9.762804
2022-08-08T18:26:33.704Z,9.762615
2022-08-08T18:27:33.704Z,9.762726
2022-08-08T18:28:52.386Z,9.762575
2022-08-08T18:29:34.698Z,9.762380
2022-08-08T18:30:33.649Z,9.762175
2022-08-08T18:31:33.651Z,9.762946
2022-08-08T18:32:33.654Z,9.762877
2022-08-08T18:34:10.429Z,9.762783
2022-08-08T18:34:34.646Z,9.762748
2022-08-08T18:35:41.794Z,9.762732
2022-08-08T18:36:34.636Z,9.762788
2022-08-08T18:37:34.980Z,9.762705
2022-08-08T18:38:34.621Z,9.762433
2022-08-08T18:39:33.677Z,9.762749
2022-08-08T18:40:35.343Z,9.762594
2022-08-08T18:41:51.390Z,9.762705
2022-08-08T18:42:34.560Z,9.762762
2022-08-08T18:43:43.130Z,9.762611
2022-08-08T18:44:35.865Z,9.762749
2022-08-08T18:46:00.969Z,9.762787
2022-08-08T18:46:55.506Z,9.762737
2022-08-08T18:47:34.581Z,9.762852
2022-08-08T18:48:33.507Z,9.762856
2022-08-08T18:49:41.023Z,9.762545
2022-08-08T18:50:34.492Z,9.762847
2022-08-08T18:51:52.719Z,9.762659
2022-08-08T18:52:36.685Z,9.762743
2022-08-08T18:54:00.234Z,9.762645
2022-08-08T18:54:34.448Z,9.762751
2022-08-08T18:55:33.426Z,9.762614
2022-08-08T18:56:33.431Z,9.762583
2022-08-08T18:57:40.784Z,9.762631
2022-08-08T18:58:34.438Z,9.762660
2022-08-08T18:59:34.332Z,9.762649
2022-08-08T19:00:33.415Z,9.762758
2022-08-08T19:02:26.693Z,9.762502
2022-08-08T19:02:34.479Z,9.763156
2022-08-08T19:04:01.457Z,9.762755
2022-08-08T19:04:35.697Z,9.762875
2022-08-08T19:05:37.831Z,9.762950
2022-08-08T19:06:34.335Z,9.762958
2022-08-08T19:07:37.544Z,9.762753
2022-08-08T19:08:33.318Z,9.762881
2022-08-08T19:09:49.026Z,9.762796
2022-08-08T19:10:34.349Z,9.762903
2022-08-08T19:11:33.298Z,9.762881
2022-08-08T19:12:33.295Z,9.762956
2022-08-08T19:13:52.472Z,9.762712
2022-08-08T19:14:34.247Z,9.762621
2022-08-08T19:15:33.887Z,9.762377
2022-08-08T19:16:33.256Z,9.762446
2022-08-08T19:17:48.068Z,9.762679
2022-08-08T19:18:49.714Z,9.762604
2022-08-08T19:19:35.203Z,9.762795
2022-08-08T19:20:33.207Z,9.762896
2022-08-08T19:21:48.634Z,9.762772
2022-08-08T19:22:34.221Z,9.762789
2022-08-08T19:23:35.406Z,9.762691
2022-08-08T19:24:42.435Z,9.762763
2022-08-08T19:26:01.384Z,9.762789
2022-08-08T19:26:34.164Z,9.762811
2022-08-08T19:27:55.724Z,9.762746
2022-08-08T19:28:36.563Z,9.762718
2022-08-08T19:29:34.008Z,9.762712
2022-08-08T19:30:33.093Z,9.762680
2022-08-08T19:31:35.301Z,9.762860
2022-08-08T19:32:33.091Z,9.762533
2022-08-08T19:33:52.264Z,9.762481
2022-08-08T19:34:41.281Z,9.762868
2022-08-08T19:35:44.349Z,9.762730
2022-08-08T19:36:34.028Z,9.762719
2022-08-08T19:37:43.902Z,9.762814
2022-08-08T19:38:34.039Z,9.762878
2022-08-08T19:39:35.546Z,9.763040
2022-08-08T19:40:32.986Z,9.762958
2022-08-08T19:41:33.664Z,9.763116
2022-08-08T19:42:33.017Z,9.762628
2022-08-08T19:43:32.996Z,9.762678
2022-08-08T19:44:42.432Z,9.762769
2022-08-08T19:45:58.717Z,9.762668
2022-08-08T19:46:33.998Z,9.762831
2022-08-08T19:47:34.107Z,9.762767
2022-08-08T19:48:32.962Z,9.762916
2022-08-08T19:49:37.578Z,9.762918
2022-08-08T19:50:32.908Z,9.762910
2022-08-08T19:51:34.301Z,9.762920
2022-08-08T19:52:35.219Z,9.762847
2022-08-08T19:53:51.720Z,9.762951
2022-08-08T19:54:33.894Z,9.762900
2022-08-08T19:55:34.125Z,9.762830
2022-08-08T19:56:40.014Z,9.762844
2022-08-08T19:57:33.855Z,9.762950
2022-08-08T19:58:32.853Z,9.762806
2022-08-08T19:59:34.926Z,9.762648
2022-08-08T20:00:32.862Z,9.762701
2022-08-08T20:02:01.626Z,9.762889
2022-08-08T20:02:33.878Z,9.762865
2022-08-08T20:04:01.567Z,9.762859
2022-08-08T20:04:33.749Z,9.762862
2022-08-08T20:06:13.503Z,9.762794
2022-08-08T20:06:33.737Z,9.762763
2022-08-08T20:08:33.771Z,9.762641
2022-08-08T20:08:39.459Z,9.763033
2022-08-08T20:09:44.297Z,9.762608
2022-08-08T20:10:33.698Z,9.762961
2022-08-08T20:11:32.685Z,9.763169
2022-08-08T20:12:35.140Z,9.762954
2022-08-08T20:14:32.573Z,9.762898
2022-08-08T20:14:42.276Z,9.762765
2022-08-08T20:15:59.936Z,9.762841
2022-08-08T20:16:37.579Z,9.762813
2022-08-08T20:17:34.633Z,9.762671
2022-08-08T20:18:37.357Z,9.762725
2022-08-08T20:19:38.737Z,9.762821
2022-08-08T20:20:33.635Z,9.762843
2022-08-08T20:21:37.948Z,9.762715
2022-08-08T20:22:33.584Z,9.762979
2022-08-08T20:23:32.611Z,9.762855
2022-08-08T20:24:32.556Z,9.762691
2022-08-08T20:25:33.570Z,9.762791
2022-08-08T20:26:33.964Z,9.762765
2022-08-08T20:27:43.643Z,9.762992
2022-08-08T20:28:33.529Z,9.762877
2022-08-08T20:29:45.531Z,9.762710